Time;durP1;ratioP1;P1;durP2;ratioP2;P2;SDS_P1;SDS_P2;PMS_P1;PMS_P2;Temp;Humidity;BMP_temperature;BMP_pressure;BME280_temperature;BME280_humidity;BME280_pressure;Samples;Min_cycle;Max_cycle;Signal;HPM_P1;HPM_P2
2023/04/09 00:01:43;;;;;;;37.25;22.88;;;4.60;99.90;;;;;;6194819;23;20091;-91
2023/04/09 00:04:30;;;;;;;34.70;22.75;;;4.60;99.90;;;;;;6212439;23;20075;-90
2023/04/09 00:07:20;;;;;;;32.65;23.60;;;4.60;1.00;;;;;;6195818;23;20024;-91
2023/04/09 00:10:08;;;;;;;34.50;24.33;;;4.50;99.90;;;;;;6216134;23;20079;-91
2023/04/09 00:12:55;;;;;;;38.25;24.13;;;4.50;99.90;;;;;;6194953;23;20025;-91
2023/04/09 00:15:46;;;;;;;36.92;24.70;;;4.50;99.90;;;;;;6192988;23;20025;-88
2023/04/09 00:18:34;;;;;;;34.03;24.58;;;4.50;99.90;;;;;;6195142;23;20020;-90
2023/04/09 00:21:21;;;;;;;32.53;23.08;;;4.60;99.90;;;;;;6214927;23;20033;-91
2023/04/09 00:24:09;;;;;;;31.63;23.05;;;4.60;99.90;;;;;;6219544;23;20025;-90
2023/04/09 00:26:58;;;;;;;34.08;24.80;;;4.60;99.90;;;;;;6215430;23;20414;-89
2023/04/09 00:29:46;;;;;;;36.80;25.38;;;4.60;99.90;;;;;;6200296;23;20103;-90
2023/04/09 00:32:34;;;;;;;34.15;25.17;;;4.70;99.90;;;;;;6227223;23;20032;-88
2023/04/09 00:35:21;;;;;;;34.35;24.98;;;4.70;99.90;;;;;;6203837;23;20028;-90
2023/04/09 00:38:09;;;;;;;36.88;25.25;;;4.70;99.90;;;;;;6201182;23;20048;-92
2023/04/09 00:40:59;;;;;;;33.30;23.77;;;4.80;99.90;;;;;;6224067;23;20415;-89
2023/04/09 00:43:49;;;;;;;39.58;25.42;;;4.70;99.90;;;;;;6200979;23;20037;-89
2023/04/09 00:46:45;;;;;;;35.40;23.88;;;4.80;99.90;;;;;;6224704;23;20028;-89
2023/04/09 00:49:35;;;;;;;33.85;24.45;;;4.80;99.90;;;;;;6234034;23;20308;-89
2023/04/09 00:52:23;;;;;;;34.58;24.63;;;4.70;99.90;;;;;;6233927;23;20024;-90
2023/04/09 00:55:12;;;;;;;32.17;23.77;;;4.70;99.90;;;;;;6222595;23;20363;-90
2023/04/09 00:58:00;;;;;;;34.55;24.42;;;4.70;99.90;;;;;;6220086;23;20048;-91
2023/04/09 01:00:49;;;;;;;33.08;23.17;;;4.70;1.00;;;;;;6221381;23;20032;-91
2023/04/09 01:03:37;;;;;;;31.83;23.15;;;4.70;22.30;;;;;;6218974;23;20474;-90
2023/04/09 01:06:50;;;;;;;38.92;25.88;;;4.70;99.90;;;;;;6218258;23;20024;-88
2023/04/09 01:09:45;;;;;;;36.13;24.95;;;4.70;99.90;;;;;;6197542;23;20055;-88
2023/04/09 01:12:44;;;;;;;34.33;23.63;;;4.70;99.90;;;;;;6220682;23;20024;-91
2023/04/09 01:15:38;;;;;;;37.13;26.05;;;4.70;99.90;;;;;;6219904;23;20024;-89
2023/04/09 01:18:47;;;;;;;34.20;23.65;;;4.70;99.90;;;;;;6198814;23;20101;-91
2023/04/09 01:21:37;;;;;;;37.28;24.92;;;4.80;99.90;;;;;;6217106;23;20036;-88
2023/04/09 01:24:50;;;;;;;33.45;23.90;;;4.70;99.90;;;;;;6218813;23;20043;-90
2023/04/09 01:28:04;;;;;;;;;;;4.70;99.90;;;;;;6221097;23;20024;-90
2023/04/09 01:31:14;;;;;;;38.40;24.88;;;4.70;99.90;;;;;;6219160;23;19920;-92
2023/04/09 01:34:09;;;;;;;38.15;24.23;;;4.70;99.90;;;;;;6228207;23;20075;-90
2023/04/09 01:37:08;;;;;;;34.03;24.00;;;4.70;99.90;;;;;;6232601;23;20363;-91
2023/04/09 01:39:56;;;;;;;34.08;24.20;;;4.70;99.90;;;;;;6199658;23;20033;-90
2023/04/09 01:42:45;;;;;;;35.10;25.30;;;4.70;99.90;;;;;;6220012;23;20021;-90
2023/04/09 01:45:36;;;;;;;35.75;24.48;;;4.70;99.90;;;;;;6219799;23;20103;-90
2023/04/09 01:48:24;;;;;;;35.88;25.75;;;4.80;99.90;;;;;;6199182;23;20090;-90
2023/04/09 01:51:15;;;;;;;37.58;26.27;;;4.70;99.90;;;;;;6220351;23;20404;-90
2023/04/09 01:54:03;;;;;;;37.58;24.88;;;4.70;99.90;;;;;;6198435;23;20086;-91
2023/04/09 01:56:50;;;;;;;37.17;25.08;;;4.70;99.90;;;;;;6227466;23;20039;-90
2023/04/09 01:59:38;;;;;;;37.70;25.10;;;4.70;1.00;;;;;;6220403;23;20025;-90
2023/04/09 02:02:44;;;;;;;35.78;25.58;;;4.70;1.00;;;;;;6220692;23;20034;-90
2023/04/09 02:05:39;;;;;;;35.47;24.67;;;4.60;1.00;;;;;;6217601;23;20151;-91
2023/04/09 02:08:27;;;;;;;39.05;25.88;;;4.70;1.00;;;;;;6195989;23;20036;-90
2023/04/09 02:11:15;;;;;;;37.00;26.50;;;4.60;1.00;;;;;;6197864;23;20277;-90
2023/04/09 02:14:03;;;;;;;38.13;25.55;;;4.60;1.00;;;;;;6218084;23;20020;-91
2023/04/09 02:16:53;;;;;;;36.28;25.95;;;4.60;99.90;;;;;;6206942;23;20020;-90
2023/04/09 02:19:43;;;;;;;37.08;25.95;;;4.60;99.90;;;;;;6197682;23;20074;-91
2023/04/09 02:22:30;;;;;;;38.33;26.40;;;4.60;99.90;;;;;;6218570;23;20032;-90
2023/04/09 02:25:25;;;;;;;36.92;25.10;;;4.60;99.90;;;;;;6217122;23;20024;-90
2023/04/09 02:28:12;;;;;;;38.08;25.30;;;4.50;1.00;;;;;;6219966;23;20047;-91
2023/04/09 02:30:59;;;;;;;38.20;26.52;;;4.50;1.00;;;;;;6199238;23;20086;-90
2023/04/09 02:33:47;;;;;;;35.00;25.52;;;4.50;99.90;;;;;;6196055;23;20082;-91
2023/04/09 02:36:34;;;;;;;40.45;27.20;;;4.50;99.90;;;;;;6199244;23;20400;-92
2023/04/09 02:39:21;;;;;;;35.08;24.95;;;4.50;99.90;;;;;;6201208;23;20013;-89
2023/04/09 02:42:09;;;;;;;38.22;25.80;;;4.50;99.90;;;;;;6216986;23;20025;-90
2023/04/09 02:44:56;;;;;;;38.63;27.00;;;4.60;1.00;;;;;;6204424;23;20055;-89
2023/04/09 02:47:43;;;;;;;42.33;28.85;;;4.50;1.00;;;;;;6220752;23;20024;-90
2023/04/09 02:50:30;;;;;;;40.03;28.33;;;4.50;1.00;;;;;;6196876;23;20044;-88
2023/04/09 02:53:20;;;;;;;39.05;27.15;;;4.50;1.00;;;;;;6219137;23;20028;-90
2023/04/09 02:56:07;;;;;;;42.63;27.83;;;4.50;1.00;;;;;;6216428;23;20024;-89
2023/04/09 02:58:54;;;;;;;40.47;27.88;;;4.50;1.00;;;;;;6218461;23;20147;-88
2023/04/09 03:01:42;;;;;;;37.63;26.92;;;4.50;77.60;;;;;;6196857;23;20024;-88
2023/04/09 03:04:29;;;;;;;40.35;28.77;;;4.50;55.20;;;;;;6219515;23;20083;-89
2023/04/09 03:07:17;;;;;;;37.22;25.67;;;4.50;37.30;;;;;;6197353;23;20355;-89
2023/04/09 03:10:04;;;;;;;43.13;28.75;;;4.40;99.90;;;;;;6198331;23;20024;-89
2023/04/09 03:12:51;;;;;;;46.33;29.50;;;4.40;99.90;;;;;;6203430;23;20077;-89
2023/04/09 03:15:39;;;;;;;44.92;30.60;;;4.40;99.90;;;;;;6221422;23;20107;-89
2023/04/09 03:18:26;;;;;;;44.92;30.25;;;4.40;99.90;;;;;;6198531;23;20020;-89
2023/04/09 03:21:15;;;;;;;41.58;28.48;;;4.40;99.90;;;;;;6205046;23;20049;-88
2023/04/09 03:24:02;;;;;;;46.90;31.83;;;4.30;99.90;;;;;;6211553;23;20036;-89
2023/04/09 03:26:50;;;;;;;43.88;30.90;;;4.30;99.90;;;;;;6210052;23;20056;-89
2023/04/09 03:29:37;;;;;;;51.03;33.67;;;4.30;99.90;;;;;;6223034;23;20024;-90
2023/04/09 03:32:24;;;;;;;53.95;34.25;;;4.30;99.90;;;;;;6209872;23;20025;-89
2023/04/09 03:35:11;;;;;;;50.55;33.30;;;4.30;99.90;;;;;;6226106;23;20025;-89
2023/04/09 03:37:59;;;;;;;47.00;30.92;;;4.30;99.90;;;;;;6195685;23;20424;-89
2023/04/09 03:40:46;;;;;;;54.22;33.63;;;4.20;99.90;;;;;;6197986;23;20040;-90
2023/04/09 03:43:36;;;;;;;50.20;31.42;;;4.20;99.90;;;;;;6219065;23;20051;-90
2023/04/09 03:46:25;;;;;;;45.50;30.83;;;4.10;99.90;;;;;;6219197;23;20102;-90
2023/04/09 03:49:13;;;;;;;45.33;31.20;;;4.10;99.90;;;;;;6218312;23;20029;-89
2023/04/09 03:52:01;;;;;;;44.53;30.35;;;4.10;99.90;;;;;;6195910;23;20017;-90
2023/04/09 03:54:48;;;;;;;41.00;27.17;;;4.10;1.00;;;;;;6217417;23;20328;-90
2023/04/09 03:57:35;;;;;;;39.90;26.35;;;4.00;1.00;;;;;;6196885;23;20029;-90
2023/04/09 04:00:22;;;;;;;42.85;29.08;;;4.00;1.00;;;;;;6219710;23;20048;-92
2023/04/09 04:03:13;;;;;;;43.55;29.88;;;4.00;1.00;;;;;;6195993;23;20118;-91
2023/04/09 04:06:04;;;;;;;48.38;32.13;;;4.00;17.10;;;;;;6217367;23;20056;-91
2023/04/09 04:08:53;;;;;;;56.95;33.45;;;4.00;70.70;;;;;;6196212;23;20039;-89
2023/04/09 04:11:43;;;;;;;49.40;31.35;;;4.00;99.90;;;;;;6220958;23;20090;-91
2023/04/09 04:14:30;;;;;;;47.13;30.52;;;4.00;99.90;;;;;;6219617;23;20086;-88
2023/04/09 04:17:17;;;;;;;51.45;33.60;;;4.00;99.90;;;;;;6220266;23;20021;-85
2023/04/09 04:20:06;;;;;;;53.17;34.10;;;4.00;99.90;;;;;;6219295;23;20020;-88
2023/04/09 04:22:53;;;;;;;48.17;31.67;;;4.00;99.90;;;;;;6219874;23;20122;-89
2023/04/09 04:25:41;;;;;;;47.55;30.52;;;4.10;99.90;;;;;;6219048;23;20359;-87
2023/04/09 04:28:32;;;;;;;51.28;31.40;;;4.10;99.90;;;;;;6220526;23;20312;-91
2023/04/09 04:31:20;;;;;;;46.75;31.05;;;4.10;99.90;;;;;;6218853;23;20020;-91
2023/04/09 04:34:07;;;;;;;53.45;33.95;;;4.10;99.90;;;;;;6216607;23;20064;-90
2023/04/09 04:36:54;;;;;;;54.88;34.42;;;4.10;99.90;;;;;;6219575;23;20035;-90
2023/04/09 04:39:42;;;;;;;65.25;37.92;;;4.10;99.90;;;;;;6217578;23;20032;-86
2023/04/09 04:42:29;;;;;;;58.55;37.35;;;4.20;99.90;;;;;;6220371;23;20114;-90
2023/04/09 04:45:18;;;;;;;53.65;34.72;;;4.10;99.90;;;;;;6219173;23;20032;-90
2023/04/09 04:48:05;;;;;;;61.00;37.20;;;4.10;99.90;;;;;;6218137;23;20504;-90
2023/04/09 04:51:00;;;;;;;67.95;38.00;;;4.10;99.90;;;;;;6197317;23;20052;-88
2023/04/09 04:53:48;;;;;;;58.88;36.30;;;4.10;99.90;;;;;;6219313;23;20024;-88
2023/04/09 04:56:37;;;;;;;69.18;37.10;;;4.10;99.90;;;;;;6217559;23;20025;-91
2023/04/09 04:59:24;;;;;;;55.50;35.35;;;4.10;99.90;;;;;;6219255;23;20028;-90
2023/04/09 05:02:19;;;;;;;52.78;34.85;;;4.10;99.90;;;;;;6219184;23;20036;-90
2023/04/09 05:05:06;;;;;;;56.90;35.45;;;4.10;99.90;;;;;;6197324;23;20039;-91
2023/04/09 05:07:54;;;;;;;57.33;35.33;;;4.10;99.90;;;;;;6216342;23;20523;-90
2023/04/09 05:10:42;;;;;;;60.92;36.88;;;4.20;99.90;;;;;;6220873;23;20020;-89
2023/04/09 05:13:30;;;;;;;57.55;34.60;;;4.20;99.90;;;;;;6196336;23;20034;-89
2023/04/09 05:16:19;;;;;;;51.38;32.75;;;4.20;99.90;;;;;;6197135;23;20024;-89
2023/04/09 05:19:10;;;;;;;45.90;30.73;;;4.30;99.90;;;;;;6219144;23;20850;-90
2023/04/09 05:21:59;;;;;;;51.78;33.40;;;4.20;99.90;;;;;;6218895;23;20060;-89
2023/04/09 05:24:46;;;;;;;49.60;32.03;;;4.20;99.90;;;;;;6219644;23;20114;-91
2023/04/09 05:27:36;;;;;;;53.08;33.20;;;4.20;99.90;;;;;;6220759;23;20035;-89
2023/04/09 05:30:24;;;;;;;55.03;34.55;;;4.30;99.90;;;;;;6219781;23;20099;-90
2023/04/09 05:33:13;;;;;;;52.97;33.83;;;4.30;99.90;;;;;;6221526;23;20320;-90
2023/04/09 05:36:01;;;;;;;52.80;33.22;;;4.30;99.90;;;;;;6220437;23;20428;-88
2023/04/09 05:38:50;;;;;;;55.03;32.78;;;4.30;99.90;;;;;;6198973;23;20024;-90
2023/04/09 05:41:43;;;;;;;50.65;32.80;;;4.40;99.90;;;;;;6221103;23;20038;-89
2023/04/09 05:44:35;;;;;;;50.88;32.63;;;4.40;99.90;;;;;;6225711;23;20012;-88
2023/04/09 05:47:25;;;;;;;46.55;31.05;;;4.50;99.90;;;;;;6240917;23;20013;-86
2023/04/09 05:50:14;;;;;;;46.33;30.52;;;4.50;99.90;;;;;;6242777;23;20012;-85
2023/04/09 05:53:02;;;;;;;50.15;32.70;;;4.60;99.90;;;;;;6242861;23;20032;-86
2023/04/09 05:55:50;;;;;;;50.75;32.97;;;4.70;99.90;;;;;;6242170;23;20036;-87
2023/04/09 05:58:38;;;;;;;50.25;31.95;;;4.80;99.90;;;;;;6234301;23;20058;-89
2023/04/09 06:01:25;;;;;;;44.97;31.60;;;4.90;99.90;;;;;;6191925;23;20058;-87
2023/04/09 06:04:17;;;;;;;44.42;30.73;;;4.90;99.90;;;;;;6217308;23;20032;-89
2023/04/09 06:07:06;;;;;;;45.42;31.33;;;5.00;32.30;;;;;;6196207;23;20052;-93
2023/04/09 06:09:57;;;;;;;47.20;31.70;;;5.20;1.00;;;;;;6217482;23;20096;-92
2023/04/09 06:12:46;;;;;;;47.10;31.33;;;5.30;99.90;;;;;;6220716;23;20028;-90
2023/04/09 06:15:33;;;;;;;43.88;28.85;;;5.40;99.90;;;;;;6218433;23;20451;-87
2023/04/09 06:18:20;;;;;;;40.55;28.50;;;5.50;99.90;;;;;;6218770;23;20091;-92
2023/04/09 06:21:08;;;;;;;39.15;27.40;;;5.80;99.90;;;;;;6219226;23;20083;-91
2023/04/09 06:23:58;;;;;;;37.67;25.13;;;5.90;99.90;;;;;;6217191;23;20037;-91
2023/04/09 06:26:48;;;;;;;37.08;25.60;;;6.00;1.00;;;;;;6220715;23;20096;-91
2023/04/09 06:29:39;;;;;;;36.05;26.25;;;6.00;89.80;;;;;;6196854;23;20024;-90
2023/04/09 06:32:26;;;;;;;34.83;25.17;;;6.00;1.00;;;;;;6195911;23;20032;-90
2023/04/09 06:35:15;;;;;;;36.10;26.17;;;6.10;99.90;;;;;;6215924;23;20047;-91
2023/04/09 06:38:06;;;;;;;38.10;26.77;;;6.10;1.00;;;;;;6218404;23;20047;-91
2023/04/09 06:40:55;;;;;;;34.97;25.27;;;6.10;99.90;;;;;;6217406;23;20032;-91
2023/04/09 06:43:44;;;;;;;33.10;23.30;;;6.30;99.90;;;;;;6214521;23;20025;-89
2023/04/09 06:46:32;;;;;;;30.65;22.88;;;6.40;99.90;;;;;;6216386;23;20029;-91
2023/04/09 06:49:22;;;;;;;34.10;24.08;;;6.60;1.00;;;;;;6215127;23;20024;-91
2023/04/09 06:52:10;;;;;;;32.47;22.95;;;6.80;99.90;;;;;;6215297;23;20407;-89
2023/04/09 06:54:57;;;;;;;30.75;22.25;;;7.20;8.20;;;;;;6216588;23;20052;-91
2023/04/09 06:57:44;;;;;;;29.83;21.08;;;7.40;99.90;;;;;;6218148;23;20027;-90
2023/04/09 07:00:32;;;;;;;26.63;19.00;;;7.50;39.80;;;;;;6218741;23;20024;-90
2023/04/09 07:03:20;;;;;;;26.70;18.83;;;7.60;1.00;;;;;;6217074;23;20031;-90
2023/04/09 07:06:10;;;;;;;25.35;18.30;;;7.70;99.90;;;;;;6217363;23;20024;-92
2023/04/09 07:08:57;;;;;;;24.13;18.13;;;7.80;99.90;;;;;;6219288;23;20092;-91
2023/04/09 07:11:47;;;;;;;24.42;18.02;;;7.80;83.70;;;;;;6215052;23;20265;-89
2023/04/09 07:14:35;;;;;;;25.85;18.13;;;7.70;9.50;;;;;;6216332;23;20020;-91
2023/04/09 07:17:25;;;;;;;24.73;18.50;;;7.60;1.00;;;;;;6195139;23;20127;-91
2023/04/09 07:20:15;;;;;;;25.40;18.00;;;7.50;1.00;;;;;;6216862;23;20020;-90
2023/04/09 07:23:02;;;;;;;29.95;19.77;;;7.40;1.00;;;;;;6216228;23;20029;-91
2023/04/09 07:26:36;;;;;;;26.88;19.63;;;7.30;1.00;;;;;;6218697;23;20034;-93
2023/04/09 07:29:33;;;;;;;26.20;17.85;;;7.50;1.00;;;;;;6215556;23;20024;-92
2023/04/09 07:33:03;;;;;;;23.42;16.75;;;7.70;1.00;;;;;;6218573;23;20047;-91
2023/04/09 07:36:12;;;;;;;;;;;;;;;;;;;;;
2023/04/09 07:39:45;;;;;;;21.00;16.13;;;8.10;99.90;;;;;;6137301;23;20140;-92
2023/04/09 07:42:41;;;;;;;19.52;15.20;;;8.70;99.90;;;;;;6112741;23;20025;-90
2023/04/09 07:46:28;;;;;;;17.65;14.40;;;9.60;99.90;;;;;;6117482;23;20041;-93
2023/04/09 07:53:29;;;;;;;15.65;11.95;;;10.90;1.00;;;;;;5914661;24;20025;-92
2023/04/09 08:04:24;;;;;;;17.40;11.95;;;12.00;99.90;;;;;;5851818;24;20026;-93
2023/04/09 08:08:08;;;;;;;;;;;;;;;;;;;;;
2023/04/09 08:10:56;;;;;;;14.40;10.75;;;12.30;99.90;;;;;;5917088;24;20025;-91
2023/04/09 08:13:52;;;;;;;15.15;10.68;;;11.70;99.90;;;;;;5970004;23;20031;-91
2023/04/09 08:20:34;;;;;;;10.02;8.43;;;10.90;99.90;;;;;;6155046;23;20006;-89
2023/04/09 08:23:22;;;;;;;11.43;9.32;;;10.30;99.90;;;;;;6133662;23;20526;-89
2023/04/09 08:30:07;;;;;;;13.77;9.60;;;9.60;99.90;;;;;;6153585;23;20032;-91
2023/04/09 08:32:54;;;;;;;12.82;10.15;;;9.60;99.90;;;;;;6131699;23;20108;-88
2023/04/09 08:35:43;;;;;;;11.38;9.30;;;9.50;99.90;;;;;;6148261;23;20017;-89
2023/04/09 08:38:30;;;;;;;11.23;8.77;;;9.60;99.90;;;;;;6195271;23;20047;-88
2023/04/09 08:41:20;;;;;;;17.80;11.65;;;9.50;99.90;;;;;;6195872;23;20060;-91
2023/04/09 08:44:07;;;;;;;11.73;8.27;;;9.70;99.90;;;;;;6216175;23;20033;-88
2023/04/09 08:46:58;;;;;;;12.02;9.15;;;10.10;99.90;;;;;;6194250;23;20032;-90
2023/04/09 08:49:47;;;;;;;8.07;7.20;;;10.30;99.90;;;;;;6194880;23;20020;-90
2023/04/09 08:52:52;;;;;;;8.00;5.75;;;10.70;99.90;;;;;;6216417;23;20020;-93
2023/04/09 08:55:43;;;;;;;8.30;6.65;;;10.40;99.90;;;;;;6216802;23;20036;-89
2023/04/09 08:58:37;;;;;;;9.82;7.10;;;10.20;99.90;;;;;;6196933;23;20036;-91
2023/04/09 09:01:54;;;;;;;5.38;4.72;;;10.50;99.90;;;;;;6215928;23;20086;-92
2023/04/09 09:04:49;;;;;;;6.57;5.07;;;11.70;99.90;;;;;;6199509;23;20098;-91
2023/04/09 09:07:57;;;;;;;7.47;5.13;;;11.70;99.90;;;;;;6224572;23;20215;-89
2023/04/09 09:10:44;;;;;;;8.80;6.43;;;11.60;99.90;;;;;;6223601;23;20060;-90
2023/04/09 09:13:32;;;;;;;8.98;7.15;;;11.50;99.90;;;;;;6217781;23;20016;-89
2023/04/09 09:16:20;;;;;;;8.15;6.80;;;11.50;99.90;;;;;;6196427;23;20432;-88
2023/04/09 09:19:25;;;;;;;7.15;6.03;;;11.40;99.90;;;;;;6219031;23;20037;-91
2023/04/09 09:22:14;;;;;;;7.05;5.80;;;11.20;99.90;;;;;;6196725;23;20059;-90
2023/04/09 09:25:04;;;;;;;8.55;7.00;;;11.20;99.90;;;;;;6194705;23;20024;-90
2023/04/09 09:27:52;;;;;;;6.95;5.55;;;11.40;99.90;;;;;;6194888;23;20067;-92
2023/04/09 09:30:40;;;;;;;9.52;7.68;;;12.10;99.90;;;;;;6200291;23;20036;-90
2023/04/09 09:33:39;;;;;;;8.48;6.90;;;11.50;99.90;;;;;;6220020;23;20036;-90
2023/04/09 09:36:31;;;;;;;6.45;5.00;;;11.40;99.90;;;;;;6196778;23;20031;-89
2023/04/09 09:39:20;;;;;;;6.43;5.70;;;11.00;99.90;;;;;;6217109;23;20427;-89
2023/04/09 09:42:08;;;;;;;7.95;5.95;;;11.00;99.90;;;;;;6195202;23;20024;-91
2023/04/09 09:44:55;;;;;;;7.72;6.43;;;10.80;99.90;;;;;;6196035;23;20110;-89
2023/04/09 09:47:43;;;;;;;6.75;5.57;;;10.80;99.90;;;;;;6196661;23;20028;-88
2023/04/09 09:50:33;;;;;;;9.57;5.72;;;10.90;99.90;;;;;;6217244;23;20032;-90
2023/04/09 09:53:23;;;;;;;7.10;5.80;;;11.20;99.90;;;;;;6222692;23;20024;-90
2023/04/09 09:56:20;;;;;;;10.45;7.32;;;11.50;99.90;;;;;;6226378;23;20396;-87
2023/04/09 09:59:21;;;;;;;8.57;6.90;;;10.80;99.90;;;;;;6219906;23;20047;-87
2023/04/09 10:02:17;;;;;;;7.85;7.03;;;10.60;99.90;;;;;;6216234;23;20020;-88
2023/04/09 10:05:06;;;;;;;10.88;7.70;;;10.00;99.90;;;;;;6218079;23;20111;-89
2023/04/09 10:07:56;;;;;;;7.07;6.35;;;10.10;99.90;;;;;;6224372;23;20028;-90
2023/04/09 10:10:44;;;;;;;8.15;6.82;;;10.30;99.90;;;;;;6216447;23;20104;-91
2023/04/09 10:13:38;;;;;;;7.13;5.88;;;10.30;99.90;;;;;;6194327;23;20024;-89
2023/04/09 10:16:28;;;;;;;7.90;6.68;;;10.30;99.90;;;;;;6214771;23;20059;-89
2023/04/09 10:19:18;;;;;;;8.60;6.80;;;9.90;99.90;;;;;;6194877;23;20490;-90
2023/04/09 10:22:12;;;;;;;8.38;6.85;;;9.90;99.90;;;;;;6196723;23;20035;-89
2023/04/09 10:25:00;;;;;;;7.72;6.38;;;10.00;99.90;;;;;;6216593;23;20417;-88
2023/04/09 10:28:14;;;;;;;8.43;6.55;;;10.30;99.90;;;;;;6195735;23;20032;-90
2023/04/09 10:31:06;;;;;;;7.47;5.90;;;12.10;99.90;;;;;;6215220;23;20039;-92
2023/04/09 10:34:02;;;;;;;9.65;5.65;;;14.40;99.90;;;;;;6214257;23;20020;-89
2023/04/09 10:36:58;;;;;;;5.10;4.18;;;16.20;96.20;;;;;;6216397;23;20078;-91
2023/04/09 10:39:53;;;;;;;4.55;3.88;;;17.00;65.90;;;;;;6195138;23;20163;-91
2023/04/09 10:42:44;;;;;;;5.88;3.85;;;16.70;32.30;;;;;;6196047;23;20325;-91
2023/04/09 10:45:41;;;;;;;4.28;3.88;;;15.00;20.90;;;;;;6216944;23;20095;-91
2023/04/09 10:48:32;;;;;;;5.85;4.95;;;15.90;26.20;;;;;;6195937;23;20039;-88
2023/04/09 10:51:20;;;;;;;5.50;4.67;;;16.20;17.40;;;;;;6176716;23;20036;-92
2023/04/09 10:54:36;;;;;;;4.53;4.13;;;16.50;21.90;;;;;;6196676;23;20607;-91
2023/04/09 10:57:25;;;;;;;4.60;4.20;;;16.80;15.00;;;;;;6231081;23;20420;-91
2023/04/09 11:00:12;;;;;;;5.25;4.38;;;17.90;7.70;;;;;;6232639;23;20017;-88
2023/04/09 11:03:03;;;;;;;7.85;4.20;;;17.00;2.20;;;;;;6211048;23;20033;-88
2023/04/09 11:06:06;;;;;;;5.70;5.10;;;17.60;4.10;;;;;;6230033;23;20428;-90
2023/04/09 11:08:54;;;;;;;5.50;4.75;;;17.30;3.40;;;;;;6215260;23;20065;-86
2023/04/09 11:11:42;;;;;;;8.30;5.10;;;16.30;1.00;;;;;;6240754;23;20072;-85
2023/04/09 11:14:29;;;;;;;5.88;4.80;;;15.50;1.00;;;;;;6216318;23;20016;-85
2023/04/09 11:17:17;;;;;;;4.97;4.38;;;16.00;1.00;;;;;;6216585;23;20026;-90
2023/04/09 11:20:06;;;;;;;6.05;4.90;;;16.20;1.00;;;;;;6239495;23;20065;-88
2023/04/09 11:22:54;;;;;;;6.22;5.30;;;16.20;1.00;;;;;;6237640;23;20086;-89
2023/04/09 11:25:47;;;;;;;5.78;4.72;;;17.10;1.00;;;;;;6216983;23;20068;-90
2023/04/09 11:28:34;;;;;;;5.95;5.35;;;16.50;1.00;;;;;;6238908;23;20032;-85
2023/04/09 11:31:27;;;;;;;6.65;4.93;;;15.40;1.00;;;;;;6229778;23;20028;-89
2023/04/09 11:34:16;;;;;;;5.63;4.88;;;14.60;1.00;;;;;;6217053;23;20021;-89
2023/04/09 11:37:08;;;;;;;6.40;5.38;;;14.20;1.00;;;;;;6197414;23;20025;-90
2023/04/09 11:39:57;;;;;;;5.85;5.25;;;14.30;1.00;;;;;;6221177;23;20364;-91
2023/04/09 11:42:48;;;;;;;7.75;5.90;;;14.30;1.00;;;;;;6225011;23;20044;-89
2023/04/09 11:45:37;;;;;;;5.65;5.15;;;14.10;1.00;;;;;;6185097;23;20029;-90
2023/04/09 11:48:24;;;;;;;5.95;5.20;;;14.50;1.00;;;;;;6216297;23;20446;-88
2023/04/09 11:51:12;;;;;;;6.55;5.22;;;14.90;1.00;;;;;;6218453;23;20332;-92
2023/04/09 11:54:04;;;;;;;6.55;5.47;;;14.90;1.00;;;;;;6219529;23;20083;-90
2023/04/09 11:56:54;;;;;;;6.40;5.35;;;14.30;1.00;;;;;;6193623;23;20459;-91
2023/04/09 11:59:42;;;;;;;6.72;5.60;;;13.50;1.00;;;;;;6218393;23;20110;-90
2023/04/09 12:02:29;;;;;;;5.82;5.22;;;13.10;1.00;;;;;;6193210;23;20024;-89
2023/04/09 12:05:29;;;;;;;6.57;5.65;;;13.00;1.00;;;;;;6194930;23;20380;-89
2023/04/09 12:08:22;;;;;;;5.80;5.18;;;14.70;1.00;;;;;;6193797;23;20032;-88
2023/04/09 12:11:11;;;;;;;7.20;6.13;;;15.90;1.00;;;;;;6199206;23;20028;-88
2023/04/09 12:14:03;;;;;;;6.18;5.57;;;15.00;1.00;;;;;;6221025;23;20110;-89
2023/04/09 12:16:55;;;;;;;6.90;6.20;;;14.80;1.00;;;;;;6215133;23;20028;-90
2023/04/09 12:19:42;;;;;;;;;;;15.60;1.00;;;;;;6216094;23;20031;-90
2023/04/09 12:22:30;;;;;;;7.30;6.25;;;16.90;1.00;;;;;;6193872;23;19916;-88
2023/04/09 12:25:18;;;;;;;6.70;6.00;;;18.00;1.00;;;;;;6199291;23;20344;-92
2023/04/09 12:28:10;;;;;;;6.38;5.78;;;17.40;1.00;;;;;;6195934;23;20416;-91
2023/04/09 12:30:58;;;;;;;5.63;5.03;;;17.90;1.00;;;;;;6196052;23;20024;-90
2023/04/09 12:33:48;;;;;;;6.68;5.97;;;19.60;1.00;;;;;;6200144;23;20028;-89
2023/04/09 12:36:40;;;;;;;6.00;5.38;;;19.50;1.00;;;;;;6198594;23;20043;-89
2023/04/09 12:39:27;;;;;;;5.80;5.20;;;18.80;1.00;;;;;;6219788;23;20110;-89
2023/04/09 12:42:15;;;;;;;7.57;5.78;;;17.90;1.00;;;;;;6196540;23;20110;-88
2023/04/09 12:45:02;;;;;;;6.10;5.50;;;17.30;1.00;;;;;;6216966;23;20024;-88
2023/04/09 12:47:50;;;;;;;6.20;4.88;;;18.10;1.00;;;;;;6197571;23;20284;-90
2023/04/09 12:50:37;;;;;;;5.13;4.63;;;19.30;1.00;;;;;;6217865;23;20035;-88
2023/04/09 12:53:25;;;;;;;5.95;4.82;;;20.50;1.00;;;;;;6216063;23;20349;-89
2023/04/09 12:56:12;;;;;;;4.90;4.30;;;21.70;1.00;;;;;;6202438;23;20024;-89
2023/04/09 12:59:00;;;;;;;4.57;4.18;;;23.20;1.00;;;;;;6223119;23;20028;-86
2023/04/09 13:01:47;;;;;;;5.70;5.20;;;22.40;1.00;;;;;;6224789;23;20381;-88
2023/04/09 13:04:35;;;;;;;6.20;5.50;;;19.10;1.00;;;;;;6222293;23;20056;-89
2023/04/09 13:07:23;;;;;;;5.63;5.13;;;17.60;1.00;;;;;;6200134;23;20079;-88
2023/04/09 13:10:11;;;;;;;7.47;5.97;;;17.20;1.00;;;;;;6222280;23;20670;-89
2023/04/09 13:12:58;;;;;;;5.85;5.25;;;17.00;1.00;;;;;;6194075;23;20029;-90
2023/04/09 13:15:45;;;;;;;5.95;5.35;;;16.90;1.00;;;;;;6216472;23;20020;-91
2023/04/09 13:18:33;;;;;;;8.23;5.63;;;16.10;1.00;;;;;;6195471;23;20021;-89
2023/04/09 13:21:20;;;;;;;6.60;5.90;;;15.10;1.00;;;;;;6196137;23;20020;-90
2023/04/09 13:24:08;;;;;;;5.75;5.05;;;14.50;1.00;;;;;;6197968;23;20036;-89
2023/04/09 13:26:55;;;;;;;5.25;4.60;;;13.90;1.00;;;;;;6227327;23;20040;-90
2023/04/09 13:29:42;;;;;;;5.70;5.13;;;13.60;1.00;;;;;;6203284;23;20055;-88
2023/04/09 13:32:30;;;;;;;6.47;5.47;;;14.20;1.00;;;;;;6216955;23;20363;-90
2023/04/09 13:35:17;;;;;;;6.25;5.22;;;14.90;1.00;;;;;;6215074;23;20028;-89
2023/04/09 13:38:09;;;;;;;6.30;5.38;;;15.40;1.00;;;;;;6220148;23;20025;-87
2023/04/09 13:40:58;;;;;;;6.22;4.90;;;15.00;1.00;;;;;;6219435;23;20035;-87
2023/04/09 13:43:46;;;;;;;6.05;5.10;;;15.10;1.00;;;;;;6195984;23;20059;-90
2023/04/09 13:46:33;;;;;;;5.90;5.20;;;14.80;1.00;;;;;;6215810;23;20055;-87
2023/04/09 13:49:22;;;;;;;5.28;4.45;;;15.30;1.00;;;;;;6220231;23;20056;-89
2023/04/09 13:52:10;;;;;;;6.43;5.13;;;16.50;1.00;;;;;;6216276;23;20032;-87
2023/04/09 13:55:00;;;;;;;6.18;4.57;;;16.30;1.00;;;;;;6196281;23;20020;-92
2023/04/09 13:57:49;;;;;;;11.45;4.80;;;15.50;1.00;;;;;;6214360;23;20024;-89
2023/04/09 14:00:39;;;;;;;5.78;4.85;;;14.70;1.00;;;;;;6214821;23;20028;-88
2023/04/09 14:03:29;;;;;;;6.88;5.35;;;14.40;1.00;;;;;;6216321;23;20024;-87
2023/04/09 14:06:16;;;;;;;7.15;4.80;;;14.50;1.00;;;;;;6220591;23;20368;-87
2023/04/09 14:09:03;;;;;;;6.53;5.03;;;14.40;1.00;;;;;;6222286;23;20095;-87
2023/04/09 14:11:51;;;;;;;6.30;4.82;;;14.30;1.00;;;;;;6220168;23;20024;-89
2023/04/09 14:14:38;;;;;;;6.03;4.85;;;14.20;1.00;;;;;;6202147;23;20110;-89
2023/04/09 14:17:25;;;;;;;7.28;5.22;;;14.30;1.00;;;;;;6200416;23;20025;-90
2023/04/09 14:20:13;;;;;;;7.38;5.22;;;14.80;1.00;;;;;;6221662;23;20028;-89
2023/04/09 14:23:00;;;;;;;6.65;5.13;;;14.20;1.00;;;;;;6216049;23;20024;-90
2023/04/09 14:25:50;;;;;;;5.97;5.35;;;14.00;1.00;;;;;;6215471;23;20163;-88
2023/04/09 14:28:38;;;;;;;6.22;5.18;;;14.80;1.00;;;;;;6196637;23;20549;-92
2023/04/09 14:31:26;;;;;;;5.20;4.55;;;16.20;1.00;;;;;;6216834;23;20450;-90
2023/04/09 14:34:14;;;;;;;5.50;4.65;;;17.20;1.00;;;;;;6206646;23;20076;-90
2023/04/09 14:37:05;;;;;;;5.55;4.85;;;18.60;1.00;;;;;;6211643;23;20028;-90
2023/04/09 14:39:59;;;;;;;5.55;4.95;;;19.20;1.00;;;;;;6233811;23;20247;-90
2023/04/09 14:42:47;;;;;;;5.55;4.70;;;17.60;1.00;;;;;;6213631;23;20028;-87
2023/04/09 14:45:35;;;;;;;6.13;4.32;;;16.90;1.00;;;;;;6232685;23;20028;-87
2023/04/09 14:48:40;;;;;;;5.50;4.78;;;16.70;1.00;;;;;;6220743;23;20023;-87
2023/04/09 14:51:29;;;;;;;5.35;4.68;;;16.20;1.00;;;;;;6220767;23;20008;-85
2023/04/09 14:54:18;;;;;;;6.22;4.55;;;16.00;1.00;;;;;;6238537;23;20088;-87
2023/04/09 14:57:05;;;;;;;5.05;4.47;;;16.70;1.00;;;;;;6198465;23;20008;-86
2023/04/09 14:59:52;;;;;;;6.00;4.50;;;16.80;1.00;;;;;;6215344;23;20062;-89
2023/04/09 15:02:40;;;;;;;5.95;4.95;;;16.70;1.00;;;;;;6214459;23;20037;-89
2023/04/09 15:05:28;;;;;;;7.40;5.15;;;15.80;1.00;;;;;;6235542;23;20008;-89
2023/04/09 15:08:15;;;;;;;7.50;5.38;;;15.20;1.00;;;;;;6229016;23;20327;-88
2023/04/09 15:11:05;;;;;;;5.85;5.00;;;14.50;1.00;;;;;;6204075;23;20021;-91